Time;durP1;ratioP1;P1;durP2;ratioP2;P2;SDS_P1;SDS_P2;PMS_P1;PMS_P2;Temp;Humidity;BMP_temperature;BMP_pressure;BME280_temperature;BME280_humidity;BME280_pressure;Samples;Min_cycle;Max_cycle;Signal;HPM_P1;HPM_P2
2023/08/20 00:01:24;;;;;;;19.17;6.05;;;18.40;99.90;;;;;;5087264;28;20040;-64
2023/08/20 00:03:54;;;;;;;21.08;5.85;;;18.30;99.90;;;;;;5085125;28;20036;-62
2023/08/20 00:06:22;;;;;;;8.65;5.05;;;18.30;99.90;;;;;;5057703;28;20072;-63
2023/08/20 00:08:48;;;;;;;10.07;5.90;;;;;;;;;;5077743;28;20024;-63
2023/08/20 00:11:14;;;;;;;15.20;6.00;;;;;;;;;;5081638;28;20124;-64
2023/08/20 00:13:41;;;;;;;15.88;5.72;;;;;;;;;;5078084;28;20086;-63
2023/08/20 00:16:07;;;;;;;16.17;6.60;;;;;;;;;;5074773;28;20039;-61
2023/08/20 00:18:34;;;;;;;16.15;5.75;;;;;;;;;;5065977;28;20041;-64
2023/08/20 00:21:00;;;;;;;9.85;5.20;;;;;;;;;;5063922;28;20024;-63
2023/08/20 00:23:26;;;;;;;19.42;7.07;;;;;;;;;;5074700;28;20631;-64
2023/08/20 00:25:53;;;;;;;14.82;5.28;;;;;;;;;;5062750;28;20042;-62
2023/08/20 00:28:22;;;;;;;17.48;5.93;;;;;;;;;;5066893;28;20032;-62
2023/08/20 00:30:49;;;;;;;15.23;5.05;;;;;;;;;;5062537;28;20047;-63
2023/08/20 00:33:15;;;;;;;14.40;4.78;;;;;;;;;;5062558;28;20097;-62
2023/08/20 00:35:41;;;;;;;8.60;5.55;;;;;;;;;;5066627;28;20039;-63
2023/08/20 00:38:07;;;;;;;29.85;4.78;;;;;;;;;;5072381;28;20040;-63
2023/08/20 00:40:33;;;;;;;11.55;4.40;;;;;;;;;;5063692;28;20039;-64
2023/08/20 00:42:59;;;;;;;;;;;;;;;;;;5071129;28;20449;-64
2023/08/20 00:45:25;;;;;;;8.27;4.97;;;;;;;;;;5070041;28;19916;-64
2023/08/20 00:47:52;;;;;;;14.10;4.50;;;;;;;;;;5065036;28;20512;-63
2023/08/20 00:50:18;;;;;;;18.67;4.82;;;;;;;;;;5065832;28;20486;-63
2023/08/20 00:52:46;;;;;;;16.05;5.18;;;;;;;;;;5063474;28;20064;-63
2023/08/20 00:55:15;;;;;;;12.27;6.22;;;;;;;;;;5069503;28;20052;-63
2023/08/20 00:57:42;;;;;;;16.20;5.00;;;;;;;;;;5062868;28;20158;-63
2023/08/20 01:00:09;;;;;;;16.13;5.53;;;;;;;;;;5079493;28;20040;-63
2023/08/20 01:02:35;;;;;;;11.32;5.22;;;;;;;;;;5070745;28;20042;-62
2023/08/20 01:05:01;;;;;;;;;;;;;;;;;;5072011;28;20131;-62
2023/08/20 01:07:47;;;;;;;13.73;5.10;;;;;;;;;;5063129;28;20014;-63
2023/08/20 01:10:22;;;;;;;7.82;4.97;;;;;;;;;;5062319;28;20115;-63
2023/08/20 01:12:48;;;;;;;18.52;6.47;;;;;;;;;;5061300;28;20141;-62
2023/08/20 01:15:15;;;;;;;14.80;5.90;;;;;;;;;;5071447;28;20043;-63
2023/08/20 01:17:42;;;;;;;9.75;5.78;;;;;;;;;;5063475;28;20032;-63
2023/08/20 01:20:09;;;;;;;20.85;5.43;;;;;;;;;;5060260;28;20078;-63
2023/08/20 01:22:44;;;;;;;18.63;5.60;;;;;;;;;;5063530;28;20039;-63
2023/08/20 01:25:10;;;;;;;8.37;5.60;;;;;;;;;;5068238;28;20075;-62
2023/08/20 01:27:37;;;;;;;10.30;5.70;;;;;;;;;;5062032;28;20355;-63
2023/08/20 01:30:03;;;;;;;15.05;5.45;;;;;;;;;;5076391;28;20043;-63
2023/08/20 01:32:30;;;;;;;13.90;5.30;;;;;;;;;;5064639;28;20078;-63
2023/08/20 01:34:56;;;;;;;12.50;5.63;;;;;;;;;;5067895;28;20054;-64
2023/08/20 01:37:22;;;;;;;12.15;5.20;;;;;;;;;;5069117;28;20480;-63
2023/08/20 01:39:48;;;;;;;10.15;5.07;;;;;;;;;;5065928;28;20804;-63
2023/08/20 01:42:14;;;;;;;;;;;;;;;;;;5063273;28;20040;-62
2023/08/20 01:44:40;;;;;;;9.48;4.75;;;;;;;;;;5060967;28;19966;-62
2023/08/20 01:47:06;;;;;;;10.10;5.63;;;;;;;;;;5061903;28;20064;-63
2023/08/20 01:49:32;;;;;;;22.42;5.65;;;;;;;;;;5070332;28;20720;-63
2023/08/20 01:51:58;;;;;;;;;;;;;;;;;;5062617;28;20128;-63
2023/08/20 01:54:24;;;;;;;16.45;4.90;;;;;;;;;;5060456;28;19991;-63
2023/08/20 01:56:50;;;;;;;13.18;5.40;;;;;;;;;;5058370;28;20135;-63
2023/08/20 01:59:16;;;;;;;;;;;;;;;;;;5058838;28;20135;-62
2023/08/20 02:01:42;;;;;;;11.35;5.30;;;;;;;;;;5061016;28;19920;-63
2023/08/20 02:04:08;;;;;;;;;;;;;;;;;;5068614;28;20032;-63
2023/08/20 02:06:34;;;;;;;11.68;5.22;;;;;;;;;;5061131;28;20311;-63
2023/08/20 02:09:00;;;;;;;18.98;6.20;;;;;;;;;;5062253;28;20111;-62
2023/08/20 02:11:26;;;;;;;12.43;6.40;;;;;;;;;;5061511;28;20040;-62
2023/08/20 02:13:52;;;;;;;19.10;7.05;;;;;;;;;;5060670;28;20119;-62
2023/08/20 02:16:18;;;;;;;14.63;6.22;;;;;;;;;;5055316;28;20721;-63
2023/08/20 02:18:44;;;;;;;;;;;;;;;;;;5063055;28;20694;-64
2023/08/20 02:21:10;;;;;;;17.85;6.35;;;;;;;;;;5061779;28;19924;-64
2023/08/20 02:23:36;;;;;;;16.90;6.18;;;;;;;;;;5061466;28;20522;-63
2023/08/20 02:26:02;;;;;;;;;;;;;;;;;;5056805;28;20650;-64
2023/08/20 02:28:28;;;;;;;15.27;5.87;;;;;;;;;;5060322;28;19927;-63
2023/08/20 02:30:54;;;;;;;17.67;7.00;;;;;;;;;;5073423;28;20099;-65
2023/08/20 02:33:20;;;;;;;;;;;;;;;;;;5071183;28;20170;-64
2023/08/20 02:35:46;;;;;;;10.77;6.10;;;;;;;;;;5064404;28;20014;-65
2023/08/20 02:38:12;;;;;;;20.88;6.80;;;;;;;;;;5076876;28;20036;-64
2023/08/20 02:40:42;;;;;;;11.90;6.70;;;;;;;;;;5071099;28;20063;-64
2023/08/20 02:43:08;;;;;;;13.75;6.68;;;;;;;;;;5056655;28;20483;-64
2023/08/20 02:45:40;;;;;;;13.60;6.38;;;;;;;;;;5060348;28;20518;-64
2023/08/20 02:48:07;;;;;;;11.07;6.90;;;;;;;;;;5061953;28;20032;-64
2023/08/20 02:50:33;;;;;;;15.30;6.65;;;;;;;;;;5069276;28;20047;-64
2023/08/20 02:52:59;;;;;;;11.07;6.68;;;;;;;;;;5066560;28;20038;-64
2023/08/20 02:55:25;;;;;;;;;;;;;;;;;;5059243;28;20169;-63
2023/08/20 02:57:51;;;;;;;9.70;5.47;;;;;;;;;;5060003;28;19912;-63
2023/08/20 03:00:17;;;;;;;11.68;5.88;;;;;;;;;;5064857;28;20033;-63
2023/08/20 03:02:43;;;;;;;;;;;;;;;;;;5069548;28;20037;-62
2023/08/20 03:05:10;;;;;;;11.23;5.77;;;;;;;;;;5069606;28;19926;-63
2023/08/20 03:07:36;;;;;;;13.65;6.15;;;;;;;;;;5060866;28;20041;-62
2023/08/20 03:10:02;;;;;;;17.58;6.82;;;;;;;;;;5066337;28;20530;-63
2023/08/20 03:12:29;;;;;;;12.68;6.05;;;;;;;;;;5063970;28;20036;-62
2023/08/20 03:14:55;;;;;;;15.55;6.82;;;;;;;;;;5061621;28;20508;-63
2023/08/20 03:17:21;;;;;;;12.10;6.63;;;;;;;;;;5061291;28;20048;-64
2023/08/20 03:19:47;;;;;;;;;;;;;;;;;;5055772;28;20117;-63
2023/08/20 03:22:13;;;;;;;11.97;6.77;;;;;;;;;;5061048;28;19971;-63
2023/08/20 03:24:39;;;;;;;15.88;6.45;;;;;;;;;;5060584;28;20040;-62
2023/08/20 03:27:05;;;;;;;;;;;;;;;;;;5060574;28;20714;-63
2023/08/20 03:29:31;;;;;;;19.00;6.68;;;;;;;;;;5048404;28;19962;-63
2023/08/20 03:31:57;;;;;;;18.13;6.40;;;;;;;;;;5061263;28;20093;-62
2023/08/20 03:34:23;;;;;;;14.75;6.85;;;;;;;;;;5063802;28;20032;-63
2023/08/20 03:36:49;;;;;;;16.73;7.10;;;;;;;;;;5051523;28;20045;-62
2023/08/20 03:39:15;;;;;;;15.40;7.05;;;;;;;;;;5062247;28;20048;-63
2023/08/20 03:41:41;;;;;;;;;;;;;;;;;;5057924;28;20036;-63
2023/08/20 03:44:07;;;;;;;18.92;6.43;;;;;;;;;;5061427;28;20463;-62
2023/08/20 03:46:33;;;;;;;;;;;;;;;;;;5060812;28;20082;-63
2023/08/20 03:48:59;;;;;;;77.05;8.18;;;;;;;;;;5069057;28;19920;-63
2023/08/20 03:51:25;;;;;;;;;;;;;;;;;;5061487;28;20039;-62
2023/08/20 03:53:51;;;;;;;24.08;6.60;;;;;;;;;;5063638;28;19982;-63
2023/08/20 03:56:17;;;;;;;13.82;6.13;;;;;;;;;;5077807;28;20408;-63
2023/08/20 03:58:43;;;;;;;9.57;5.80;;;;;;;;;;5071633;28;20041;-63
2023/08/20 04:01:09;;;;;;;19.45;6.53;;;;;;;;;;5069571;28;20041;-61
2023/08/20 04:03:35;;;;;;;10.35;5.93;;;;;;;;;;5072258;28;20048;-63
2023/08/20 04:06:01;;;;;;;;;;;;;;;;;;5070735;28;20700;-62
2023/08/20 04:08:27;;;;;;;14.02;6.10;;;;;;;;;;5064452;28;19927;-62
2023/08/20 04:10:53;;;;;;;10.45;5.88;;;;;;;;;;5064229;28;20696;-63
2023/08/20 04:13:19;;;;;;;;;;;;;;;;;;5068841;28;20035;-64
2023/08/20 04:15:45;;;;;;;12.50;5.57;;;;;;;;;;5063580;28;19912;-64
2023/08/20 04:18:11;;;;;;;;;;;;;;;;;;5071418;28;20660;-65
2023/08/20 04:20:37;;;;;;;9.68;5.10;;;;;;;;;;5058118;28;19921;-65
2023/08/20 04:23:03;;;;;;;8.13;5.15;;;;;;;;;;5084918;28;20178;-64
2023/08/20 04:25:29;;;;;;;11.88;6.28;;;;;;;;;;5069715;28;20062;-64
2023/08/20 04:27:55;;;;;;;;;;;;;;;;;;5061096;28;20032;-64
2023/08/20 04:30:21;;;;;;;8.93;5.10;;;;;;;;;;5070186;28;19947;-64
2023/08/20 04:32:48;;;;;;;16.17;6.38;;;;;;;;;;5051580;28;20044;-63
2023/08/20 04:35:14;;;;;;;14.93;6.85;;;;;;;;;;5063694;28;20040;-62
2023/08/20 04:37:40;;;;;;;;;;;;;;;;;;5061683;28;20051;-63
2023/08/20 04:40:07;;;;;;;11.70;5.45;;;;;;;;;;5063626;28;20291;-63
2023/08/20 04:42:33;;;;;;;7.70;5.82;;;;;;;;;;5055900;28;20047;-62
2023/08/20 04:44:59;;;;;;;12.30;5.88;;;;;;;;;;5063473;28;20033;-63
2023/08/20 04:47:25;;;;;;;;;;;;;;;;;;5064785;28;20602;-63
2023/08/20 04:49:52;;;;;;;16.05;5.22;;;;;;;;;;5063307;28;19924;-62
2023/08/20 04:52:20;;;;;;;16.90;4.20;;;;;;;;;;5068302;28;20047;-62
2023/08/20 04:54:46;;;;;;;9.60;4.13;;;;;;;;;;5068670;28;20041;-62
2023/08/20 04:57:11;;;;;;;;;;;;;;;;;;5059734;28;20044;-62
2023/08/20 04:59:37;;;;;;;8.27;5.00;;;;;;;;;;5077917;28;19916;-63
2023/08/20 05:02:03;;;;;;;;;;;;;;;;;;5055091;28;20043;-63
2023/08/20 05:04:29;;;;;;;11.95;4.45;;;;;;;;;;5062860;28;19920;-63
2023/08/20 05:06:55;;;;;;;6.43;4.15;;;;;;;;;;5079051;28;20535;-62
2023/08/20 05:09:21;;;;;;;;;;;;;;;;;;5063881;28;20040;-62
2023/08/20 05:11:47;;;;;;;10.85;4.32;;;;;;;;;;5059366;28;19920;-62
2023/08/20 05:14:13;;;;;;;;;;;;;;;;;;5062219;28;20115;-63
2023/08/20 05:16:39;;;;;;;15.45;6.65;;;;;;;;;;5060630;28;20363;-62
2023/08/20 05:19:05;;;;;;;;;;;;;;;;;;5059303;28;20040;-62
2023/08/20 05:21:31;;;;;;;31.42;8.82;;;;;;;;;;5063803;28;19920;-62
2023/08/20 05:23:57;;;;;;;20.85;8.35;;;;;;;;;;5061999;28;20041;-63
2023/08/20 05:26:23;;;;;;;20.60;8.02;;;;;;;;;;5060807;28;20083;-63
2023/08/20 05:28:49;;;;;;;17.42;7.40;;;;;;;;;;5066139;28;20105;-63
2023/08/20 05:31:15;;;;;;;;;;;;;;;;;;5067078;28;20701;-63
2023/08/20 05:33:41;;;;;;;35.97;9.82;;;;;;;;;;5071213;28;19915;-63
2023/08/20 05:36:07;;;;;;;26.25;8.95;;;;;;;;;;5065907;28;20597;-63
2023/08/20 05:38:33;;;;;;;19.70;7.45;;;;;;;;;;5057086;28;20044;-64
2023/08/20 05:40:59;;;;;;;;;;;;;;;;;;5061121;28;20404;-61
2023/08/20 05:43:25;;;;;;;24.40;7.85;;;;;;;;;;5057282;28;19917;-60
2023/08/20 05:45:51;;;;;;;25.73;7.68;;;;;;;;;;5067167;28;20050;-61
2023/08/20 05:48:17;;;;;;;;;;;;;;;;;;5061860;28;20127;-61
2023/08/20 05:50:43;;;;;;;26.65;8.18;;;;;;;;;;5074878;28;20337;-62
2023/08/20 05:53:09;;;;;;;22.27;8.75;;;;;;;;;;5062660;28;20032;-62
2023/08/20 05:55:35;;;;;;;31.00;9.27;;;;;;;;;;5062748;28;20036;-62
2023/08/20 05:58:02;;;;;;;;;;;;;;;;;;5049556;28;20040;-62
2023/08/20 06:00:28;;;;;;;22.13;8.57;;;;;;;;;;5069864;28;19920;-61
2023/08/20 06:02:54;;;;;;;26.80;7.93;;;;;;;;;;5062384;28;20457;-60
2023/08/20 06:05:20;;;;;;;;;;;;;;;;;;5062770;28;20525;-59
2023/08/20 06:07:46;;;;;;;24.90;8.50;;;;;;;;;;5069326;28;19941;-60
2023/08/20 06:10:12;;;;;;;31.75;10.70;;;;;;;;;;5054277;28;20102;-61
2023/08/20 06:12:38;;;;;;;43.40;13.35;;;;;;;;;;5058008;28;20037;-62
2023/08/20 06:15:04;;;;;;;27.35;10.30;;;;;;;;;;5064704;28;20111;-61
2023/08/20 06:17:30;;;;;;;37.33;11.80;;;;;;;;;;5062951;28;20119;-61
2023/08/20 06:19:56;;;;;;;;;;;;;;;;;;5062344;28;20060;-62
2023/08/20 06:22:22;;;;;;;34.53;12.60;;;;;;;;;;5053590;28;19952;-60
2023/08/20 06:24:48;;;;;;;26.85;11.05;;;;;;;;;;5060154;28;20067;-64
2023/08/20 06:27:14;;;;;;;;;;;;;;;;;;5055675;28;20127;-62
2023/08/20 06:29:40;;;;;;;34.60;14.38;;;;;;;;;;5052356;28;19920;-60
2023/08/20 06:32:06;;;;;;;;;;;;;;;;;;5053047;28;20459;-60
2023/08/20 06:34:34;;;;;;;30.52;12.55;;;;;;;;;;5053275;28;19912;-63
2023/08/20 06:37:00;;;;;;;31.95;13.80;;;;;;;;;;5054801;28;20101;-63
2023/08/20 06:39:26;;;;;;;;;;;;;;;;;;5062208;28;20036;-62
2023/08/20 06:41:52;;;;;;;29.27;14.05;;;;;;;;;;5059349;28;19920;-62
2023/08/20 06:44:18;;;;;;;32.60;14.40;;;;;;;;;;5061622;28;20027;-63
2023/08/20 06:46:44;;;;;;;;;;;;;;;;;;5068951;28;20500;-60
2023/08/20 06:49:10;;;;;;;31.65;14.23;;;;;;;;;;5072084;28;20486;-61
2023/08/20 06:51:36;;;;;;;34.35;14.80;;;;;;;;;;5067153;28;20045;-62
2023/08/20 06:54:02;;;;;;;28.90;14.95;;;;;;;;;;5060016;28;20060;-60
2023/08/20 06:56:28;;;;;;;29.70;15.35;;;;;;;;;;5053968;28;20055;-59
2023/08/20 06:58:54;;;;;;;33.88;17.27;;;;;;;;;;5057944;28;20044;-61
2023/08/20 07:01:20;;;;;;;47.15;22.48;;;;;;;;;;5061692;28;20112;-60
2023/08/20 07:03:46;;;;;;;;;;;;;;;;;;5062587;28;20662;-60
2023/08/20 07:06:14;;;;;;;39.75;21.67;;;;;;;;;;5057773;28;20007;-60
2023/08/20 07:08:40;;;;;;;46.13;25.48;;;;;;;;;;5050761;28;20041;-60
2023/08/20 07:11:06;;;;;;;48.00;25.75;;;;;;;;;;5051962;28;20045;-59
2023/08/20 07:13:32;;;;;;;54.75;26.67;;;;;;;;;;5060411;28;20039;-61
2023/08/20 07:15:58;;;;;;;48.80;25.70;;;;;;;;;;5054194;28;20082;-56
2023/08/20 07:18:24;;;;;;;40.33;22.92;;;;;;;;;;5059757;28;20444;-59
2023/08/20 07:20:54;;;;;;;46.15;25.33;;;;;;;;;;5053841;28;20068;-60
2023/08/20 07:23:20;;;;;;;43.28;24.00;;;;;;;;;;5062051;28;20105;-61
2023/08/20 07:25:46;;;;;;;40.92;22.02;;;;;;;;;;5057218;28;20100;-61
2023/08/20 07:28:13;;;;;;;39.63;22.48;;;;;;;;;;5061346;28;20163;-62
2023/08/20 07:30:39;;;;;;;42.08;22.30;;;;;;;;;;5052918;28;20137;-61
2023/08/20 07:33:06;;;;;;;37.53;21.35;;;;;;;;;;5068297;28;20044;-61
2023/08/20 07:35:32;;;;;;;42.60;22.23;;;;;;;;;;5062596;28;20036;-61
2023/08/20 07:37:58;;;;;;;36.53;20.83;;;;;;;;;;5063242;28;20037;-60
2023/08/20 07:40:25;;;;;;;38.70;22.33;;;;;;;;;;5062602;28;20042;-61
2023/08/20 07:42:51;;;;;;;39.30;23.30;;;;;;;;;;5070887;28;20727;-61
2023/08/20 07:45:17;;;;;;;35.45;20.90;;;;;;;;;;5060644;28;20035;-61
2023/08/20 07:47:43;;;;;;;38.30;22.95;;;;;;;;;;5057753;28;20414;-60
2023/08/20 07:50:09;;;;;;;31.08;19.45;;;;;;;;;;5064310;28;20040;-61
2023/08/20 07:52:35;;;;;;;30.67;19.67;;;;;;;;;;5072702;28;20040;-62
2023/08/20 07:55:01;;;;;;;30.75;18.85;;;;;;;;;;5069172;28;20044;-61
2023/08/20 07:57:27;;;;;;;32.28;20.95;;;;;;;;;;5064303;28;20040;-61
2023/08/20 07:59:53;;;;;;;32.85;20.88;;;;;;;;;;5063252;28;20063;-61
2023/08/20 08:02:19;;;;;;;31.55;19.48;;;;;;;;;;5057451;28;20037;-62
2023/08/20 08:04:45;;;;;;;27.35;18.17;;;;;;;;;;5064767;28;20589;-61
2023/08/20 08:07:11;;;;;;;27.23;17.08;;;;;;;;;;5047011;28;20085;-61
2023/08/20 08:09:38;;;;;;;28.40;18.23;;;;;;;;;;5055817;28;20044;-61
2023/08/20 08:12:04;;;;;;;28.48;18.70;;;;;;;;;;5063088;28;20064;-61
2023/08/20 08:14:30;;;;;;;28.02;18.98;;;;;;;;;;5080098;28;20039;-62
2023/08/20 08:16:57;;;;;;;30.95;20.08;;;;;;;;;;5053975;28;20967;-61
2023/08/20 08:19:23;;;;;;;29.70;18.13;;;;;;;;;;5056964;28;20053;-62
2023/08/20 08:21:49;;;;;;;22.98;16.65;;;;;;;;;;5056844;28;20037;-63
2023/08/20 08:24:15;;;;;;;23.38;16.48;;;;;;;;;;5060505;28;20036;-64
2023/08/20 08:26:41;;;;;;;22.10;16.30;;;;;;;;;;5054872;28;20045;-62
2023/08/20 08:29:08;;;;;;;21.60;15.00;;;;;;;;;;5058145;28;20033;-61
2023/08/20 08:31:35;;;;;;;20.48;14.82;;;;;;;;;;5071731;28;20040;-61
2023/08/20 08:34:01;;;;;;;21.10;13.35;;;;;;;;;;5064516;28;20045;-61
2023/08/20 08:36:29;;;;;;;18.85;14.32;;;;;;;;;;5044763;28;20067;-64
2023/08/20 08:38:55;;;;;;;17.95;14.40;;;;;;;;;;5062507;28;20127;-62
2023/08/20 08:41:26;;;;;;;17.92;13.75;;;;;;;;;;5056320;28;20032;-61
2023/08/20 08:43:52;;;;;;;15.45;12.13;;;;;;;;;;5059702;28;20048;-61
2023/08/20 08:46:18;;;;;;;18.75;12.55;;;;;;;;;;5051528;28;20064;-62
2023/08/20 08:48:44;;;;;;;18.23;13.25;;;;;;;;;;5056082;28;20454;-63
2023/08/20 08:51:30;;;;;;;21.48;14.70;;;;;;;;;;5076623;28;20066;-61
2023/08/20 08:54:17;;;;;;;23.65;16.75;;;;;;;;;;5066465;28;20123;-61
2023/08/20 08:57:03;;;;;;;;;;;;;;;;;;5068043;28;20032;-61
2023/08/20 08:59:29;;;;;;;22.27;15.40;;;;;;;;;;5088486;28;19907;-62
2023/08/20 09:01:56;;;;;;;21.33;15.27;;;;;;;;;;5076121;28;20654;-62
2023/08/20 09:04:45;;;;;;;25.88;15.18;;;;;;;;;;5076833;28;20089;-62
2023/08/20 09:07:14;;;;;;;25.42;17.45;;;;;;;;;;5085349;28;20028;-61
2023/08/20 09:09:44;;;;;;;23.67;17.38;;;;;;;;;;5082425;28;20158;-62
2023/08/20 09:12:14;;;;;;;25.33;17.88;;;;;;;;;;5081599;28;20555;-61
2023/08/20 09:14:40;;;;;;;25.55;16.88;;;;;;;;;;5080964;28;20032;-62
2023/08/20 09:17:06;;;;;;;24.35;16.40;;;;;;;;;;5083332;28;20032;-61
2023/08/20 09:19:39;;;;;;;24.77;17.77;;;;;;;;;;5076135;28;20036;-61
2023/08/20 09:22:05;;;;;;;20.25;15.65;;;;;;;;;;5077547;28;20403;-62
2023/08/20 09:24:39;;;;;;;21.33;16.15;;;;;;;;;;5078617;28;20044;-63
2023/08/20 09:27:05;;;;;;;25.13;16.60;;;;;;;;;;5089682;28;20057;-62
2023/08/20 09:29:55;;;;;;;22.95;16.70;;;;;;;;;;5079902;28;21834;-64
2023/08/20 09:32:22;;;;;;;20.52;14.50;;;;;;;;;;5069494;28;20042;-65
2023/08/20 09:34:49;;;;;;;23.05;16.85;;;;;;;;;;5076811;28;20043;-64
2023/08/20 09:37:16;;;;;;;19.55;15.43;;;;;;;;;;5083035;28;20063;-62
2023/08/20 09:39:42;;;;;;;20.40;14.48;;;;;;;;;;5088733;28;20455;-64
2023/08/20 09:42:09;;;;;;;21.83;14.60;;;;;;;;;;5090770;28;20036;-64
2023/08/20 09:44:35;;;;;;;20.58;14.48;;;;;;;;;;5082136;28;20040;-64
2023/08/20 09:47:11;;;;;;;20.90;14.60;;;;;;;;;;5091103;28;20094;-64
2023/08/20 09:49:48;;;;;;;20.15;14.23;;;;;;;;;;5084801;28;20115;-64
2023/08/20 09:52:21;;;;;;;20.17;13.65;;;;;;;;;;5102815;28;20043;-63
2023/08/20 09:55:07;;;;;;;19.15;13.75;;;;;;;;;;5075164;28;20035;-63
2023/08/20 09:57:35;;;;;;;20.85;15.35;;;;;;;;;;5074731;28;20040;-62
2023/08/20 10:00:02;;;;;;;18.88;13.98;;;;;;;;;;5087521;28;20101;-63
2023/08/20 10:02:29;;;;;;;18.83;14.25;;;;;;;;;;5080836;28;20042;-63
2023/08/20 10:04:55;;;;;;;19.95;14.00;;;;;;;;;;5097761;28;20032;-65
2023/08/20 10:07:24;;;;;;;18.65;14.38;;;;;;;;;;5091086;28;20040;-61
2023/08/20 10:09:52;;;;;;;17.30;13.65;;;;;;;;;;5101312;28;20043;-61
2023/08/20 10:12:18;;;;;;;18.90;13.00;;;;;;;;;;5087300;28;20036;-61
2023/08/20 10:14:44;;;;;;;15.65;12.02;;;;;;;;;;5094481;28;20068;-62
2023/08/20 10:17:12;;;;;;;18.42;13.48;;;;;;;;;;5074772;28;20039;-62
2023/08/20 10:19:39;;;;;;;19.65;13.40;;;;;;;;;;5095484;28;20043;-63
2023/08/20 10:22:07;;;;;;;18.10;14.05;;;;;;;;;;5086968;28;20028;-63
2023/08/20 10:24:47;;;;;;;15.18;11.77;;;;;;;;;;5099538;28;20530;-62
2023/08/20 10:27:13;;;;;;;19.25;13.10;;;;;;;;;;5083528;28;20145;-62
2023/08/20 10:29:41;;;;;;;17.67;13.60;;;;;;;;;;5093455;28;20040;-64
2023/08/20 10:32:11;;;;;;;20.25;11.70;;;;;;;;;;5088291;28;20056;-63
2023/08/20 10:34:38;;;;;;;19.17;13.45;;;;;;;;;;5066903;28;20066;-62
2023/08/20 10:37:14;;;;;;;14.70;11.32;;;;;;;;;;5081351;28;20043;-62
2023/08/20 10:39:42;;;;;;;16.83;12.57;;;;;;;;;;5099353;28;20052;-62
2023/08/20 10:42:22;;;;;;;16.70;11.93;;;;;;;;;;5091296;28;20376;-61
2023/08/20 10:44:58;;;;;;;17.50;12.60;;;;;;;;;;5074961;28;20047;-62
2023/08/20 10:47:27;;;;;;;14.75;11.27;;;;;;;;;;5083240;28;20068;-62
2023/08/20 10:49:54;;;;;;;15.77;12.82;;;;;;;;;;5089928;28;20376;-62
2023/08/20 10:52:23;;;;;;;14.63;11.77;;;;;;;;;;5092845;28;20048;-62
2023/08/20 10:54:51;;;;;;;16.80;12.82;;;;;;;;;;5090875;28;20487;-62
2023/08/20 10:57:17;;;;;;;17.50;10.90;;;;;;;;;;5082240;28;20050;-62
2023/08/20 10:59:43;;;;;;;14.55;12.32;;;;;;;;;;5098247;28;20044;-62
2023/08/20 11:02:12;;;;;;;14.00;11.70;;;;;;;;;;5086445;28;20084;-61
2023/08/20 11:04:39;;;;;;;16.60;12.70;;;;;;;;;;5083388;28;20119;-62
2023/08/20 11:07:05;;;;;;;17.50;13.32;;;;;;;;;;5082847;28;20131;-63
2023/08/20 11:09:31;;;;;;;16.38;12.10;;;;;;;;;;5081612;28;20040;-63
2023/08/20 11:11:58;;;;;;;13.25;10.70;;;;;;;;;;5086519;28;20578;-63
2023/08/20 11:14:24;;;;;;;16.35;11.77;;;;;;;;;;5095112;28;20131;-63
2023/08/20 11:16:50;;;;;;;22.48;12.00;;;;;;;;;;5085898;28;20039;-62
2023/08/20 11:19:20;;;;;;;12.27;10.85;;;;;;;;;;5090612;28;20566;-63
2023/08/20 11:21:46;;;;;;;13.75;10.25;;;;;;;;;;5083722;28;20040;-62
2023/08/20 11:24:12;;;;;;;13.27;10.88;;;;;;;;;;5088980;28;20036;-64
2023/08/20 11:26:42;;;;;;;14.88;10.57;;;;;;;;;;5084631;28;20040;-62
2023/08/20 11:29:09;;;;;;;25.17;11.50;;;;;;;;;;5085461;28;20166;-61
2023/08/20 11:31:38;;;;;;;17.25;12.02;;;;;;;;;;5093403;28;20059;-63
2023/08/20 11:34:05;;;;;;;17.30;12.45;;;;;;;;;;5070274;28;20040;-62
2023/08/20 11:36:31;;;;;;;13.85;12.32;;;;;;;;;;5072975;28;20067;-63
2023/08/20 11:38:57;;;;;;;16.38;11.48;;;;;;;;;;5086081;28;20043;-63
2023/08/20 11:41:24;;;;;;;17.80;11.18;;;;;;;;;;5094051;28;20036;-63
2023/08/20 11:43:51;;;;;;;15.75;11.82;;;;;;;;;;5081467;28;20036;-63
2023/08/20 11:46:19;;;;;;;13.30;11.05;;;;;;;;;;5087299;28;20043;-62
2023/08/20 11:49:04;;;;;;;14.88;11.18;;;;;;;;;;5081506;28;20047;-63
2023/08/20 11:51:36;;;;;;;14.52;10.40;;;;;;;;;;5081840;28;20036;-62
2023/08/20 11:54:03;;;;;;;13.88;10.00;;;;;;;;;;5102085;28;20051;-62
2023/08/20 11:56:29;;;;;;;13.82;11.57;;;;;;;;;;5084255;28;20055;-63
2023/08/20 11:59:00;;;;;;;17.23;12.13;;;;;;;;;;5096838;28;20031;-62
2023/08/20 12:01:26;;;;;;;14.07;10.88;;;;;;;;;;5086891;28;20403;-61
2023/08/20 12:03:52;;;;;;;13.73;10.82;;;;;;;;;;5080965;28;20033;-62
2023/08/20 12:06:19;;;;;;;18.33;11.00;;;;;;;;;;5081352;28;20044;-62
2023/08/20 12:08:45;;;;;;;18.58;10.60;;;;;;;;;;5062887;28;20066;-62
2023/08/20 12:11:11;;;;;;;10.63;8.85;;;;;;;;;;5081306;28;20113;-62
2023/08/20 12:13:37;;;;;;;15.85;10.93;;;;;;;;;;5082426;28;20040;-63
2023/08/20 12:16:03;;;;;;;12.73;10.13;;;;;;;;;;5067033;28;20075;-64
2023/08/20 12:18:29;;;;;;;13.57;10.13;;;;;;;;;;5085173;28;20036;-62
2023/08/20 12:20:55;;;;;;;14.35;10.55;;;;;;;;;;5085254;28;20122;-64
2023/08/20 12:23:22;;;;;;;14.43;10.35;;;;;;;;;;5085288;28;20042;-63
2023/08/20 12:25:51;;;;;;;15.35;10.32;;;;;;;;;;5066524;28;20074;-63
2023/08/20 12:28:18;;;;;;;20.52;10.07;;;;;;;;;;5079852;28;20036;-63
2023/08/20 12:30:45;;;;;;;13.02;9.65;;;;;;;;;;5091561;28;20399;-64
2023/08/20 12:33:11;;;;;;;14.23;10.05;;;;;;;;;;5085344;28;20119;-63
2023/08/20 12:35:37;;;;;;;13.63;9.43;;;;;;;;;;5089523;28;20032;-64
2023/08/20 12:38:04;;;;;;;11.02;8.65;;;;;;;;;;5084873;28;20036;-62
2023/08/20 12:40:32;;;;;;;11.85;8.95;;;;;;;;;;5085169;28;20094;-62
2023/08/20 12:42:58;;;;;;;11.88;9.45;;;;;;;;;;5077148;28;20063;-63
2023/08/20 12:45:24;;;;;;;12.60;7.97;;;;;;;;;;5083867;28;20036;-62
2023/08/20 12:47:50;;;;;;;9.38;7.22;;;;;;;;;;5079307;28;20771;-62
2023/08/20 12:50:16;;;;;;;11.07;8.15;;;;;;;;;;5084334;28;20024;-62
2023/08/20 12:52:42;;;;;;;14.02;7.70;;;;;;;;;;5088723;28;20032;-62
2023/08/20 12:55:09;;;;;;;13.60;6.93;;;;;;;;;;5104973;28;20402;-62
2023/08/20 12:57:36;;;;;;;9.20;6.70;;;;;;;;;;5092349;28;20043;-63
2023/08/20 13:00:07;;;;;;;10.45;7.57;;;;;;;;;;5089293;28;20040;-63
2023/08/20 13:02:33;;;;;;;9.93;7.25;;;;;;;;;;5083469;28;20047;-63
2023/08/20 13:05:00;;;;;;;15.20;8.15;;;;;;;;;;5091743;28;20036;-63
2023/08/20 13:07:26;;;;;;;7.80;6.40;;;;;;;;;;5084627;28;20537;-63
2023/08/20 13:09:52;;;;;;;10.80;7.65;;;;;;;;;;5100489;28;20032;-63
2023/08/20 13:12:19;;;;;;;10.57;8.07;;;;;;;;;;5090520;28;20035;-62
2023/08/20 13:14:45;;;;;;;12.02;9.25;;;;;;;;;;5094215;28;20506;-64
2023/08/20 13:17:11;;;;;;;14.20;8.75;;;;;;;;;;5083926;28;20078;-64
2023/08/20 13:19:38;;;;;;;11.98;9.32;;;;;;;;;;5083449;28;20043;-64
2023/08/20 13:22:04;;;;;;;14.95;9.50;;;;;;;;;;5096277;28;20041;-64
2023/08/20 13:24:30;;;;;;;8.77;7.57;;;;;;;;;;5096677;28;20036;-63
2023/08/20 13:26:56;;;;;;;12.68;9.27;;;;;;;;;;5094385;28;20130;-63
2023/08/20 13:29:22;;;;;;;12.38;8.70;;;;;;;;;;5082402;28;20021;-63
2023/08/20 13:31:48;;;;;;;12.15;8.93;;;;;;;;;;5074126;28;20044;-66
2023/08/20 13:34:14;;;;;;;15.30;9.07;;;;;;;;;;5090635;28;20046;-63
2023/08/20 13:36:40;;;;;;;14.00;9.00;;;;;;;;;;5087059;28;20032;-63
2023/08/20 13:39:06;;;;;;;13.23;8.85;;;;;;;;;;5083639;28;20246;-64
2023/08/20 13:41:32;;;;;;;14.95;8.63;;;;;;;;;;5091062;28;20453;-62
2023/08/20 13:43:58;;;;;;;13.20;8.80;;;;;;;;;;5098217;28;20390;-64
2023/08/20 13:46:24;;;;;;;12.40;8.38;;;;;;;;;;5095333;28;20044;-62
2023/08/20 13:48:50;;;;;;;13.00;9.63;;;;;;;;;;5088186;28;20503;-63
2023/08/20 13:51:16;;;;;;;15.23;8.93;;;;;;;;;;5096624;28;20031;-64
2023/08/20 13:53:42;;;;;;;14.05;10.75;;;;;;;;;;5090579;28;20032;-63
2023/08/20 13:56:08;;;;;;;13.07;9.95;;;;;;;;;;5101018;28;20131;-63
2023/08/20 13:58:34;;;;;;;14.60;10.15;;;;;;;;;;5084370;28;20044;-63
2023/08/20 14:01:00;;;;;;;12.13;9.35;;;;;;;;;;5092106;28;20090;-63
2023/08/20 14:03:26;;;;;;;13.27;10.25;;;;;;;;;;5083012;28;20464;-63
2023/08/20 14:05:53;;;;;;;14.65;9.20;;;;;;;;;;5082103;28;20127;-63
2023/08/20 14:08:19;;;;;;;14.13;9.27;;;;;;;;;;5083022;28;20035;-63
2023/08/20 14:10:45;;;;;;;15.95;8.82;;;;;;;;;;5082369;28;20089;-62
2023/08/20 14:13:11;;;;;;;14.27;9.77;;;;;;;;;;5082780;28;20042;-64
2023/08/20 14:15:37;;;;;;;14.82;9.63;;;;;;;;;;5083152;28;20039;-63
2023/08/20 14:18:04;;;;;;;12.40;9.80;;;;;;;;;;5082241;28;20584;-63
2023/08/20 14:20:30;;;;;;;12.02;9.18;;;;;;;;;;5083381;28;20051;-63
2023/08/20 14:22:56;;;;;;;13.35;10.15;;;;;;;;;;5066344;28;20048;-63
2023/08/20 14:25:22;;;;;;;13.13;9.43;;;;;;;;;;5089559;28;20690;-61
2023/08/20 14:27:48;;;;;;;12.77;9.73;;;;;;;;;;5082104;28;20151;-63
2023/08/20 14:30:14;;;;;;;12.35;9.30;;;;;;;;;;5076295;28;20055;-63
2023/08/20 14:32:39;;;;;;;15.07;9.88;;;;;;;;;;5086368;28;20102;-63
2023/08/20 14:35:06;;;;;;;11.95;10.20;;;;;;;;;;5074896;28;20047;-63